Time;durP1;ratioP1;P1;durP2;ratioP2;P2;SDS_P1;SDS_P2;PMS_P1;PMS_P2;Temp;Humidity;BMP_temperature;BMP_pressure;BME280_temperature;BME280_humidity;BME280_pressure;Samples;Min_cycle;Max_cycle;Signal;HPM_P1;HPM_P2
2021/03/16 00:00:01;;;;;;;8.30;0.70;;;23.90;48.50;;;;;;5026405;28;20521;-63
2021/03/16 00:02:28;;;;;;;11.93;1.23;;;23.90;28.90;;;;;;5024702;28;20435;-65
2021/03/16 00:04:54;;;;;;;14.90;1.55;;;23.90;29.10;;;;;;5022020;28;20075;-67
2021/03/16 00:07:21;;;;;;;9.63;0.50;;;23.80;29.00;;;;;;5025944;28;20101;-67
2021/03/16 00:09:48;;;;;;;7.00;0.88;;;23.60;29.10;;;;;;5023313;28;20149;-68
2021/03/16 00:12:14;;;;;;;18.55;1.20;;;23.50;29.30;;;;;;5024005;28;20088;-67
2021/03/16 00:14:41;;;;;;;16.52;1.58;;;22.80;33.40;;;;;;5023884;28;20077;-68
2021/03/16 00:17:08;;;;;;;21.13;2.20;;;22.80;34.30;;;;;;5024580;28;20102;-67
2021/03/16 00:19:34;;;;;;;26.95;1.67;;;22.30;35.50;;;;;;5025643;28;20596;-68
2021/03/16 00:22:01;;;;;;;23.25;1.85;;;21.80;36.30;;;;;;5024165;28;20116;-68
2021/03/16 00:24:28;;;;;;;27.88;1.85;;;21.40;37.20;;;;;;5026025;28;20078;-68
2021/03/16 00:26:55;;;;;;;29.50;1.92;;;21.20;37.50;;;;;;5023101;28;20113;-67
2021/03/16 00:29:22;;;;;;;33.40;2.13;;;21.00;37.70;;;;;;5026675;28;20082;-67
2021/03/16 00:31:49;;;;;;;35.92;2.30;;;21.00;37.60;;;;;;5023209;28;20074;-69
2021/03/16 00:34:15;;;;;;;44.00;2.55;;;20.70;37.70;;;;;;5026181;28;20062;-67
2021/03/16 00:36:42;;;;;;;42.92;3.25;;;20.60;38.00;;;;;;5023244;28;20124;-68
2021/03/16 00:39:08;;;;;;;34.30;3.13;;;20.50;38.20;;;;;;5038804;28;20096;-66
2021/03/16 00:41:35;;;;;;;17.35;1.98;;;20.50;38.40;;;;;;5025696;28;20524;-67
2021/03/16 00:44:03;;;;;;;30.92;2.80;;;20.50;38.40;;;;;;5039469;28;20077;-67
2021/03/16 00:46:29;;;;;;;15.98;1.20;;;20.40;38.20;;;;;;5021529;28;20477;-66
2021/03/16 00:48:56;;;;;;;12.55;1.15;;;20.20;38.40;;;;;;5024971;28;20109;-68
2021/03/16 00:51:22;;;;;;;11.20;1.05;;;20.00;38.60;;;;;;5043092;28;20140;-65
2021/03/16 00:53:49;;;;;;;18.92;1.58;;;19.90;38.70;;;;;;5027565;28;20082;-66
2021/03/16 00:56:15;;;;;;;6.13;0.80;;;20.00;38.40;;;;;;5027153;28;20215;-65
2021/03/16 00:58:42;;;;;;;15.38;1.80;;;19.80;38.20;;;;;;5028533;28;20168;-67
2021/03/16 01:01:09;;;;;;;18.23;1.63;;;19.80;38.40;;;;;;5024904;28;20114;-67
2021/03/16 01:03:36;;;;;;;13.70;0.90;;;19.70;38.60;;;;;;5041999;28;20066;-67
2021/03/16 01:06:03;;;;;;;21.25;1.45;;;19.60;38.80;;;;;;5023418;28;20134;-69
2021/03/16 01:08:30;;;;;;;18.50;1.65;;;19.40;38.80;;;;;;5023269;28;20115;-67
2021/03/16 01:10:57;;;;;;;15.30;1.30;;;19.20;39.50;;;;;;5026618;28;20085;-68
2021/03/16 01:13:24;;;;;;;22.25;1.70;;;19.10;39.80;;;;;;5022292;28;20078;-68
2021/03/16 01:15:51;;;;;;;29.00;1.92;;;18.90;40.30;;;;;;5024869;28;20110;-67
2021/03/16 01:18:21;;;;;;;20.20;1.30;;;18.80;40.00;;;;;;5016804;28;20124;-71
2021/03/16 01:20:47;;;;;;;19.92;1.85;;;18.60;40.00;;;;;;5021290;28;20100;-69
2021/03/16 01:23:14;;;;;;;27.30;2.35;;;18.60;40.20;;;;;;5024883;28;20492;-70
2021/03/16 01:25:41;;;;;;;38.47;2.17;;;18.50;40.50;;;;;;5018425;28;20098;-68
2021/03/16 01:28:07;;;;;;;34.08;4.05;;;18.50;40.30;;;;;;5024381;28;20484;-69
2021/03/16 01:30:34;;;;;;;30.35;2.70;;;18.30;40.30;;;;;;5027755;28;20093;-68
2021/03/16 01:33:01;;;;;;;37.60;2.97;;;18.00;41.00;;;;;;5027131;28;20081;-70
2021/03/16 01:35:27;;;;;;;;;;;17.80;41.40;;;;;;5028321;28;20068;-68
2021/03/16 01:37:57;;;;;;;35.38;2.15;;;17.70;41.80;;;;;;5026314;28;19962;-69
2021/03/16 01:40:37;;;;;;;35.45;2.83;;;17.60;41.60;;;;;;5023967;28;20077;-68
2021/03/16 01:43:24;;;;;;;34.13;2.10;;;17.40;42.20;;;;;;5023760;28;20549;-69
2021/03/16 01:45:51;;;;;;;45.87;2.63;;;17.30;42.00;;;;;;5021765;28;20105;-68
2021/03/16 01:48:27;;;;;;;53.63;3.72;;;17.30;42.10;;;;;;5024885;28;20102;-70
2021/03/16 01:50:54;;;;;;;46.63;3.22;;;17.20;42.10;;;;;;5025637;28;20074;-66
2021/03/16 01:53:21;;;;;;;96.85;5.03;;;17.10;42.20;;;;;;5026207;28;20140;-67
2021/03/16 01:55:51;;;;;;;69.80;5.32;;;16.90;42.40;;;;;;5022569;28;20074;-67
2021/03/16 01:58:18;;;;;;;77.72;4.63;;;16.80;42.30;;;;;;5021790;28;20077;-70
2021/03/16 02:00:45;;;;;;;101.80;7.18;;;16.60;42.60;;;;;;5023780;28;20523;-69
2021/03/16 02:03:13;;;;;;;59.67;2.90;;;16.70;42.70;;;;;;5023415;28;20074;-69
2021/03/16 02:05:44;;;;;;;47.83;4.47;;;16.60;42.40;;;;;;5019030;28;20117;-70
2021/03/16 02:08:35;;;;;;;86.70;4.32;;;16.60;42.60;;;;;;5021787;28;20093;-69
2021/03/16 02:11:26;;;;;;;74.72;4.22;;;16.30;43.20;;;;;;5039758;28;20445;-69
2021/03/16 02:13:56;;;;;;;94.63;5.15;;;16.10;43.50;;;;;;5039063;28;20136;-68
2021/03/16 02:16:32;;;;;;;125.07;6.38;;;15.90;43.80;;;;;;5023774;28;20082;-70
2021/03/16 02:19:00;;;;;;;177.55;10.88;;;15.60;44.30;;;;;;5024723;28;20450;-67
2021/03/16 02:21:31;;;;;;;218.00;11.45;;;15.40;44.00;;;;;;5025467;28;20102;-66
2021/03/16 02:24:09;;;;;;;181.23;11.90;;;15.30;44.00;;;;;;5027298;28;20066;-69
2021/03/16 02:26:46;;;;;;;248.35;14.68;;;15.10;44.20;;;;;;5027695;28;20094;-67
2021/03/16 02:29:25;;;;;;;321.15;15.45;;;14.90;44.60;;;;;;5027352;28;20077;-68
2021/03/16 02:32:03;;;;;;;303.17;15.55;;;14.90;44.50;;;;;;5044854;28;20085;-67
2021/03/16 02:34:31;;;;;;;275.90;15.90;;;14.80;44.50;;;;;;5038769;28;20433;-68
2021/03/16 02:37:02;;;;;;;203.95;12.75;;;14.80;44.50;;;;;;5019255;28;20089;-68
2021/03/16 02:39:29;;;;;;;248.98;12.35;;;14.80;44.10;;;;;;5019569;28;20070;-69
2021/03/16 02:41:59;;;;;;;264.30;16.60;;;14.80;44.60;;;;;;5025460;28;20082;-68
2021/03/16 02:44:28;;;;;;;304.83;16.02;;;14.70;43.80;;;;;;5022679;28;20078;-72
2021/03/16 02:46:56;;;;;;;211.60;11.48;;;14.50;43.30;;;;;;5023076;28;21427;-70
2021/03/16 02:49:24;;;;;;;188.25;10.75;;;14.40;43.40;;;;;;5039107;28;20075;-71
2021/03/16 02:51:53;;;;;;;135.77;8.18;;;14.40;43.00;;;;;;5024114;28;20535;-71
2021/03/16 02:54:20;;;;;;;125.88;7.10;;;14.40;42.60;;;;;;5041117;28;20076;-72
2021/03/16 02:56:49;;;;;;;121.43;8.00;;;14.40;42.40;;;;;;5023432;28;20070;-70
2021/03/16 02:59:16;;;;;;;146.70;9.63;;;14.50;53.30;;;;;;5026444;28;20075;-66
2021/03/16 03:01:47;;;;;;;120.45;8.45;;;14.30;42.00;;;;;;5025338;28;20086;-68
2021/03/16 03:04:15;;;;;;;112.65;7.93;;;14.40;42.40;;;;;;5025145;28;20066;-67
2021/03/16 03:06:43;;;;;;;111.03;6.60;;;14.30;40.30;;;;;;5024569;28;20594;-69
2021/03/16 03:09:13;;;;;;;161.98;8.80;;;14.10;38.90;;;;;;5025249;28;20493;-68
2021/03/16 03:11:39;;;;;;;237.50;12.98;;;14.20;39.10;;;;;;5023273;28;20616;-68
2021/03/16 03:14:08;;;;;;;366.00;19.35;;;14.00;39.30;;;;;;5024710;28;20078;-70
2021/03/16 03:16:35;;;;;;;391.25;21.02;;;14.00;39.80;;;;;;5029118;28;20161;-70
2021/03/16 03:19:01;;;;;;;;;;;14.00;40.30;;;;;;5026853;28;20160;-68
2021/03/16 03:21:49;;;;;;;712.92;44.15;;;13.90;40.10;;;;;;5043180;28;19968;-68
2021/03/16 03:24:23;;;;;;;550.78;30.63;;;13.90;40.20;;;;;;5026008;28;20074;-67
2021/03/16 03:27:14;;;;;;;141.13;6.90;;;13.80;40.70;;;;;;5023494;28;20103;-69
2021/03/16 03:29:44;;;;;;;100.22;5.97;;;13.70;41.60;;;;;;5019872;28;20085;-66
2021/03/16 03:32:12;;;;;;;64.53;3.92;;;13.70;41.70;;;;;;5025778;28;20082;-70
2021/03/16 03:34:40;;;;;;;69.55;4.15;;;13.60;42.00;;;;;;5024929;28;20073;-68
2021/03/16 03:37:08;;;;;;;61.40;4.50;;;13.60;42.50;;;;;;5024164;28;20177;-69
2021/03/16 03:39:38;;;;;;;71.90;4.63;;;13.60;42.50;;;;;;5025298;28;20154;-69
2021/03/16 03:42:06;;;;;;;98.13;5.90;;;13.60;42.30;;;;;;5024078;28;20199;-68
2021/03/16 03:44:34;;;;;;;50.70;4.10;;;13.50;42.00;;;;;;5023268;28;20080;-67
2021/03/16 03:47:05;;;;;;;41.58;3.53;;;13.50;42.40;;;;;;5024618;28;20122;-69
2021/03/16 03:49:32;;;;;;;83.75;5.65;;;13.60;42.20;;;;;;5042552;28;20587;-69
2021/03/16 03:51:59;;;;;;;202.02;12.30;;;13.60;41.90;;;;;;5026361;28;20455;-70
2021/03/16 03:54:28;;;;;;;257.42;15.90;;;13.40;40.00;;;;;;5023700;28;20078;-68
2021/03/16 03:56:56;;;;;;;138.70;8.73;;;13.40;39.00;;;;;;5039905;28;20132;-66
2021/03/16 03:59:25;;;;;;;32.47;3.75;;;13.40;38.40;;;;;;5028261;28;20070;-67
2021/03/16 04:01:52;;;;;;;29.33;3.08;;;13.40;40.80;;;;;;5041070;28;20074;-68
2021/03/16 04:04:19;;;;;;;32.00;2.50;;;13.30;42.50;;;;;;5027538;28;20476;-67
2021/03/16 04:06:46;;;;;;;47.30;3.17;;;13.10;42.40;;;;;;5038342;28;20097;-66
2021/03/16 04:09:13;;;;;;;74.95;3.60;;;13.00;42.70;;;;;;5024886;28;20178;-67
2021/03/16 04:11:40;;;;;;;49.63;3.33;;;12.90;43.00;;;;;;5041620;28;20070;-67
2021/03/16 04:14:07;;;;;;;172.88;7.95;;;12.90;42.30;;;;;;5028791;28;20490;-68
2021/03/16 04:16:37;;;;;;;46.47;3.88;;;12.90;41.20;;;;;;5024952;28;20074;-68
2021/03/16 04:19:04;;;;;;;50.13;3.63;;;13.00;39.30;;;;;;5027169;28;20074;-68
2021/03/16 04:21:31;;;;;;;62.92;3.85;;;13.00;38.90;;;;;;5027726;28;20541;-67
2021/03/16 04:23:58;;;;;;;18.55;2.17;;;13.00;38.80;;;;;;5025065;28;20082;-70
2021/03/16 04:26:27;;;;;;;363.65;20.02;;;13.00;38.50;;;;;;5022712;28;20701;-67
2021/03/16 04:28:53;;;;;;;27.55;2.60;;;13.00;39.10;;;;;;5026827;28;20162;-70
2021/03/16 04:31:20;;;;;;;34.55;2.22;;;13.10;39.30;;;;;;5026004;28;20074;-68
2021/03/16 04:33:46;;;;;;;;;;;13.00;39.50;;;;;;5024057;28;20070;-68
2021/03/16 04:36:15;;;;;;;28.42;2.60;;;12.90;40.00;;;;;;5026001;28;20449;-68
2021/03/16 04:38:41;;;;;;;49.45;2.75;;;12.90;45.60;;;;;;5039383;28;20082;-67
2021/03/16 04:41:08;;;;;;;35.47;3.17;;;12.60;73.80;;;;;;5024140;28;20082;-66
2021/03/16 04:43:34;;;;;;;;;;;12.90;38.90;;;;;;5026311;28;20074;-66
2021/03/16 04:46:01;;;;;;;54.15;3.63;;;12.90;39.10;;;;;;5026387;28;20140;-68
2021/03/16 04:48:27;;;;;;;;;;;12.90;39.30;;;;;;5022791;28;20085;-68
2021/03/16 04:50:53;;;;;;;44.90;3.47;;;12.90;39.70;;;;;;5027471;28;19957;-70
2021/03/16 04:53:19;;;;;;;;;;;12.80;40.00;;;;;;5027179;28;20097;-67
2021/03/16 04:55:46;;;;;;;42.78;2.90;;;12.90;40.20;;;;;;5024367;28;19962;-68
2021/03/16 04:58:12;;;;;;;;;;;12.80;40.50;;;;;;5024532;28;20086;-69
2021/03/16 05:00:39;;;;;;;49.92;3.63;;;12.80;40.40;;;;;;5025553;28;19964;-67
2021/03/16 05:03:05;;;;;;;;;;;12.90;40.60;;;;;;5022165;28;20074;-68
2021/03/16 05:05:31;;;;;;;37.90;2.63;;;12.80;40.80;;;;;;5040549;28;20545;-67
2021/03/16 05:07:57;;;;;;;;;;;12.80;41.00;;;;;;5028931;28;20446;-68
2021/03/16 05:10:25;;;;;;;25.08;2.30;;;12.80;41.30;;;;;;5024675;28;19966;-67
2021/03/16 05:12:51;;;;;;;23.27;3.05;;;12.80;41.70;;;;;;5023045;28;20078;-70
2021/03/16 05:15:17;;;;;;;;;;;12.80;42.20;;;;;;5040246;28;20077;-67
2021/03/16 05:17:44;;;;;;;36.88;2.42;;;12.80;42.40;;;;;;5024219;28;20314;-69
2021/03/16 05:20:11;;;;;;;20.40;1.80;;;12.80;42.90;;;;;;5024207;28;20078;-67
2021/03/16 05:22:37;;;;;;;18.50;2.38;;;12.60;43.70;;;;;;5029993;28;20105;-68
2021/03/16 05:25:05;;;;;;;;;;;12.50;44.60;;;;;;5024763;28;20074;-70
2021/03/16 05:27:31;;;;;;;;;;;12.50;45.30;;;;;;5023254;28;20422;-70
2021/03/16 05:29:58;;;;;;;27.92;3.20;;;12.50;45.60;;;;;;5023491;28;19958;-69
2021/03/16 05:32:24;;;;;;;31.95;3.05;;;12.30;46.70;;;;;;5025529;28;20076;-69
2021/03/16 05:34:51;;;;;;;;;;;12.30;47.40;;;;;;5024820;28;20106;-68
2021/03/16 05:37:17;;;;;;;12.18;1.70;;;12.30;47.30;;;;;;5019269;28;19958;-68
2021/03/16 05:39:44;;;;;;;;;;;12.20;46.80;;;;;;5020803;28;20084;-68
2021/03/16 05:42:10;;;;;;;15.20;1.48;;;12.30;45.70;;;;;;5019882;28;19957;-71
2021/03/16 05:44:37;;;;;;;;;;;12.40;44.80;;;;;;5024578;28;20599;-71
2021/03/16 05:47:05;;;;;;;21.30;2.40;;;12.40;44.40;;;;;;5040539;28;20025;-68
2021/03/16 05:49:33;;;;;;;14.05;2.17;;;12.40;44.20;;;;;;5021904;28;20071;-68
2021/03/16 05:52:00;;;;;;;24.08;2.22;;;12.50;44.20;;;;;;5018816;28;20070;-72
2021/03/16 05:54:27;;;;;;;14.85;1.67;;;12.50;44.00;;;;;;5019070;28;20066;-70
2021/03/16 05:56:53;;;;;;;12.57;1.35;;;12.50;43.60;;;;;;5035066;28;20395;-69
2021/03/16 05:59:20;;;;;;;;;;;12.50;43.30;;;;;;5022425;28;20097;-66
2021/03/16 06:01:46;;;;;;;36.08;2.90;;;12.50;43.10;;;;;;5021003;28;19964;-69
2021/03/16 06:04:13;;;;;;;21.80;1.58;;;12.50;42.70;;;;;;5022884;28;20102;-66
2021/03/16 06:06:39;;;;;;;;;;;12.60;42.50;;;;;;5022705;28;20607;-69
2021/03/16 06:09:06;;;;;;;20.60;2.25;;;12.60;42.40;;;;;;5022636;28;20438;-71
2021/03/16 06:11:34;;;;;;;36.33;2.40;;;12.60;42.40;;;;;;5016837;28;20082;-67
2021/03/16 06:14:00;;;;;;;26.92;1.80;;;12.50;42.40;;;;;;5018561;28;20071;-69
2021/03/16 06:16:26;;;;;;;;;;;12.50;42.50;;;;;;5018040;28;20107;-69
2021/03/16 06:18:53;;;;;;;21.70;1.70;;;12.50;42.60;;;;;;5015824;28;19964;-67
2021/03/16 06:21:20;;;;;;;;;;;12.50;42.70;;;;;;5017492;28;20110;-68
2021/03/16 06:23:55;;;;;;;31.33;2.28;;;12.50;42.60;;;;;;5017132;28;19957;-67
2021/03/16 06:26:29;;;;;;;13.18;1.83;;;12.40;41.90;;;;;;5016459;28;20109;-66
2021/03/16 06:29:09;;;;;;;24.30;2.20;;;12.50;39.90;;;;;;5016607;28;20082;-69
2021/03/16 06:31:35;;;;;;;17.15;1.80;;;12.50;39.90;;;;;;5017452;28;20089;-70
2021/03/16 06:34:03;;;;;;;33.65;2.20;;;12.40;40.10;;;;;;5016523;28;20088;-69
2021/03/16 06:36:31;;;;;;;11.68;1.65;;;12.30;40.30;;;;;;5015949;28;20095;-69
2021/03/16 06:38:58;;;;;;;7.88;1.33;;;12.30;40.60;;;;;;5017038;28;20085;-69
2021/03/16 06:41:26;;;;;;;7.72;1.38;;;12.20;41.20;;;;;;5017346;28;20596;-68
2021/03/16 06:43:54;;;;;;;10.60;1.70;;;12.20;52.40;;;;;;5014469;28;20113;-67
2021/03/16 06:46:37;;;;;;;10.85;1.75;;;12.20;41.60;;;;;;5015487;28;20114;-68
2021/03/16 06:49:14;;;;;;;10.30;1.85;;;12.40;50.30;;;;;;5016029;28;20078;-68
2021/03/16 06:51:44;;;;;;;10.50;1.60;;;12.10;42.20;;;;;;5019532;28;20080;-67
2021/03/16 06:54:16;;;;;;;15.55;1.67;;;12.00;42.50;;;;;;5017165;28;20085;-69
2021/03/16 06:56:54;;;;;;;16.77;2.35;;;11.90;43.10;;;;;;5016820;28;20161;-69
2021/03/16 06:59:25;;;;;;;21.23;1.75;;;11.80;43.50;;;;;;5031886;28;20105;-68
2021/03/16 07:01:53;;;;;;;17.25;1.92;;;11.90;44.10;;;;;;5014252;28;20550;-69
2021/03/16 07:04:21;;;;;;;18.88;2.22;;;11.80;44.70;;;;;;5019060;28;20172;-68
2021/03/16 07:06:49;;;;;;;14.10;1.85;;;11.70;45.10;;;;;;5020716;28;20113;-69
2021/03/16 07:09:18;;;;;;;13.35;1.98;;;11.80;45.50;;;;;;5018652;28;20133;-68
2021/03/16 07:11:48;;;;;;;15.15;1.75;;;11.70;45.00;;;;;;5021629;28;20078;-67
2021/03/16 07:14:20;;;;;;;23.25;2.28;;;11.70;45.00;;;;;;5020519;28;20104;-70
2021/03/16 07:16:51;;;;;;;23.15;2.20;;;11.70;45.40;;;;;;5024922;28;20070;-68
2021/03/16 07:19:19;;;;;;;18.35;2.00;;;11.70;46.00;;;;;;5020884;28;20071;-68
2021/03/16 07:21:56;;;;;;;13.20;2.35;;;11.70;46.40;;;;;;5021498;28;20117;-68
2021/03/16 07:24:28;;;;;;;21.30;2.20;;;11.60;46.80;;;;;;5018968;28;20078;-69
2021/03/16 07:27:01;;;;;;;11.45;1.65;;;11.50;47.60;;;;;;5020000;28;20597;-68
2021/03/16 07:29:28;;;;;;;13.05;1.88;;;11.50;48.00;;;;;;5020249;28;20085;-68
2021/03/16 07:31:55;;;;;;;12.40;1.70;;;11.50;47.90;;;;;;5018449;28;20447;-70
2021/03/16 07:34:22;;;;;;;14.75;1.92;;;11.50;48.20;;;;;;5034288;28;20074;-68
2021/03/16 07:36:51;;;;;;;9.52;1.60;;;11.40;48.40;;;;;;5019747;28;20169;-69
2021/03/16 07:39:22;;;;;;;10.27;1.92;;;11.40;48.50;;;;;;5019978;28;20221;-69
2021/03/16 07:41:51;;;;;;;12.52;1.65;;;11.40;48.30;;;;;;5019101;28;20102;-67
2021/03/16 07:44:19;;;;;;;9.48;1.40;;;11.40;48.50;;;;;;5018199;28;20597;-69
2021/03/16 07:46:53;;;;;;;21.00;1.92;;;11.40;48.80;;;;;;5019358;28;20172;-67
2021/03/16 07:49:39;;;;;;;13.05;2.25;;;11.40;49.50;;;;;;5020470;28;20078;-68
2021/03/16 07:52:20;;;;;;;15.02;1.60;;;11.40;49.90;;;;;;5022345;28;20530;-69
2021/03/16 07:54:49;;;;;;;11.77;1.60;;;11.40;49.90;;;;;;5023700;28;20069;-68
2021/03/16 07:57:30;;;;;;;11.15;1.73;;;11.40;49.80;;;;;;5021191;28;20182;-69
2021/03/16 08:00:01;;;;;;;9.75;1.73;;;11.30;49.80;;;;;;5023248;28;20089;-69
2021/03/16 08:02:29;;;;;;;6.53;1.83;;;11.40;49.80;;;;;;5022572;28;20078;-70
2021/03/16 08:04:56;;;;;;;9.20;1.63;;;11.40;49.80;;;;;;5021116;28;20528;-70
2021/03/16 08:07:27;;;;;;;9.38;1.73;;;11.30;50.00;;;;;;5022794;28;20121;-70
2021/03/16 08:09:57;;;;;;;13.93;1.65;;;11.30;49.60;;;;;;5038679;28;20074;-69
2021/03/16 08:12:31;;;;;;;13.80;1.98;;;11.30;49.50;;;;;;5022502;28;20085;-68
2021/03/16 08:15:10;;;;;;;9.27;1.70;;;11.30;49.40;;;;;;5021233;28;20112;-69
2021/03/16 08:17:37;;;;;;;7.97;1.63;;;11.30;49.10;;;;;;5021680;28;20078;-68
2021/03/16 08:20:03;;;;;;;;;;;11.30;48.50;;;;;;5038263;28;20082;-68
2021/03/16 08:22:30;;;;;;;12.73;1.77;;;11.30;47.90;;;;;;5022870;28;20056;-69
2021/03/16 08:25:05;;;;;;;10.40;1.88;;;11.30;46.60;;;;;;5036854;28;20351;-67
2021/03/16 08:27:34;;;;;;;8.80;1.40;;;11.30;46.30;;;;;;5022769;28;20155;-68
2021/03/16 08:30:08;;;;;;;9.30;1.23;;;11.40;46.00;;;;;;5021551;28;20077;-69
2021/03/16 08:32:37;;;;;;;7.78;1.58;;;11.40;45.30;;;;;;5022871;28;20077;-69
2021/03/16 08:35:04;;;;;;;15.93;1.52;;;11.40;45.50;;;;;;5023148;28;20076;-69
2021/03/16 08:37:33;;;;;;;12.10;1.35;;;11.40;45.60;;;;;;5020931;28;20161;-69
2021/03/16 08:40:01;;;;;;;9.70;1.83;;;11.40;45.80;;;;;;5020376;28;20539;-69
2021/03/16 08:42:28;;;;;;;12.93;1.23;;;11.50;45.90;;;;;;5020786;28;20081;-68
2021/03/16 08:44:56;;;;;;;8.40;1.25;;;11.50;45.80;;;;;;5022245;28;20470;-67
2021/03/16 08:47:25;;;;;;;11.70;1.50;;;11.50;45.90;;;;;;5021566;28;20129;-69
2021/03/16 08:49:54;;;;;;;9.68;1.33;;;11.50;45.90;;;;;;5003448;28;20112;-68
2021/03/16 08:52:24;;;;;;;9.48;1.42;;;11.50;45.60;;;;;;5043743;22;20121;-68
2021/03/16 08:54:53;;;;;;;10.48;1.65;;;11.50;45.80;;;;;;5039929;28;20070;-67
2021/03/16 08:57:24;;;;;;;10.38;1.70;;;11.50;46.50;;;;;;5041504;28;20062;-69
2021/03/16 08:59:56;;;;;;;22.60;2.33;;;11.40;46.30;;;;;;5038013;28;20086;-69
2021/03/16 09:02:31;;;;;;;15.68;1.95;;;11.40;46.80;;;;;;5039915;28;20195;-68
2021/03/16 09:05:01;;;;;;;11.18;1.60;;;11.40;47.20;;;;;;5041651;28;20527;-69
2021/03/16 09:07:33;;;;;;;8.23;1.48;;;11.20;47.90;;;;;;5040732;28;20536;-70
2021/03/16 09:10:17;;;;;;;13.90;1.60;;;11.20;49.30;;;;;;5040176;28;20407;-67
2021/03/16 09:12:45;;;;;;;12.32;1.80;;;11.10;49.40;;;;;;5040108;28;20105;-69
2021/03/16 09:15:14;;;;;;;15.02;2.10;;;11.10;49.70;;;;;;5042302;28;20098;-68
2021/03/16 09:17:43;;;;;;;11.82;1.73;;;11.00;50.60;;;;;;5041849;28;20080;-69
2021/03/16 09:20:20;;;;;;;15.63;1.75;;;10.90;51.50;;;;;;5040249;28;20437;-68
2021/03/16 09:23:00;;;;;;;6.53;1.33;;;10.90;51.90;;;;;;5041188;28;20065;-68
2021/03/16 09:25:35;;;;;;;8.55;1.70;;;10.90;51.20;;;;;;5037015;28;20165;-68
2021/03/16 09:28:04;;;;;;;15.98;1.83;;;10.90;51.20;;;;;;5040475;28;20143;-67
2021/03/16 09:30:37;;;;;;;7.20;1.20;;;11.00;50.50;;;;;;5041912;28;20418;-65
2021/03/16 09:33:06;;;;;;;4.30;1.25;;;11.00;49.40;;;;;;5043109;28;20082;-68
2021/03/16 09:35:33;;;;;;;10.70;1.65;;;11.10;48.00;;;;;;5040215;28;20580;-68
2021/03/16 09:38:03;;;;;;;13.88;1.77;;;11.20;47.70;;;;;;5022003;28;20590;-66
2021/03/16 09:40:44;;;;;;;12.13;1.63;;;11.20;47.70;;;;;;5039350;28;20161;-68
2021/03/16 09:43:22;;;;;;;15.63;1.85;;;11.30;47.60;;;;;;5041713;28;20442;-66
2021/03/16 09:45:53;;;;;;;7.90;1.60;;;11.20;47.70;;;;;;5038457;28;20554;-68
2021/03/16 09:48:21;;;;;;;8.02;1.60;;;11.20;48.00;;;;;;5037039;28;20094;-67
2021/03/16 09:50:48;;;;;;;8.40;1.25;;;11.20;48.00;;;;;;5038612;28;20062;-69
2021/03/16 09:53:16;;;;;;;5.38;1.38;;;11.20;48.00;;;;;;5038825;28;20167;-69
2021/03/16 09:55:44;;;;;;;7.13;1.40;;;11.20;47.50;;;;;;5038251;28;20446;-68
2021/03/16 09:58:23;;;;;;;8.68;1.40;;;11.20;46.40;;;;;;5041466;28;20421;-68
2021/03/16 10:00:50;;;;;;;6.90;1.45;;;11.30;45.70;;;;;;5044015;28;20504;-69
2021/03/16 10:03:18;;;;;;;7.00;1.85;;;11.30;45.40;;;;;;5041679;28;20069;-68
2021/03/16 10:05:47;;;;;;;7.80;1.52;;;11.30;45.00;;;;;;5040799;28;20093;-68
2021/03/16 10:08:26;;;;;;;11.15;1.90;;;11.40;45.10;;;;;;5038626;28;20430;-68
2021/03/16 10:10:55;;;;;;;5.93;1.92;;;11.30;44.60;;;;;;5039629;28;20139;-68
2021/03/16 10:13:40;;;;;;;11.20;2.03;;;11.40;45.00;;;;;;5039103;28;20082;-69
2021/03/16 10:16:11;;;;;;;10.20;2.05;;;11.40;45.20;;;;;;5040561;28;20070;-68
2021/03/16 10:18:48;;;;;;;9.57;1.98;;;11.30;45.80;;;;;;5042993;28;20066;-67
2021/03/16 10:21:15;;;;;;;10.32;1.98;;;11.30;45.40;;;;;;5038351;28;20078;-68
2021/03/16 10:23:42;;;;;;;8.43;1.70;;;11.30;44.80;;;;;;5026542;28;20530;-67
2021/03/16 10:26:11;;;;;;;9.52;1.92;;;11.40;44.90;;;;;;5044970;28;20125;-69
2021/03/16 10:28:44;;;;;;;13.82;1.90;;;11.40;45.10;;;;;;5039780;28;20073;-69
2021/03/16 10:31:25;;;;;;;9.98;1.80;;;11.40;45.10;;;;;;5039688;28;20157;-68
2021/03/16 10:33:54;;;;;;;15.38;1.90;;;11.40;45.20;;;;;;5042420;28;20076;-68
2021/03/16 10:36:21;;;;;;;12.20;1.73;;;11.40;45.50;;;;;;5041332;28;20070;-68
2021/03/16 10:38:49;;;;;;;10.25;1.70;;;11.40;45.60;;;;;;5039965;28;20072;-68
2021/03/16 10:41:22;;;;;;;11.82;1.70;;;11.40;45.40;;;;;;5042125;28;20177;-67
2021/03/16 10:43:49;;;;;;;4.82;1.10;;;11.40;45.50;;;;;;5044287;28;20116;-66
2021/03/16 10:46:16;;;;;;;6.38;1.40;;;11.50;45.50;;;;;;5027065;28;20558;-66
2021/03/16 10:48:42;;;;;;;;;;;11.50;45.30;;;;;;5042055;28;20083;-67
2021/03/16 10:51:09;;;;;;;9.85;1.10;;;11.50;45.10;;;;;;5041688;28;20027;-69
2021/03/16 10:53:35;;;;;;;7.13;1.50;;;11.50;44.80;;;;;;5043479;28;20081;-69
2021/03/16 10:56:04;;;;;;;;;;;11.50;44.60;;;;;;5047351;28;20077;-69
2021/03/16 10:58:31;;;;;;;12.73;2.03;;;11.50;44.70;;;;;;5045817;28;19957;-69
2021/03/16 11:00:58;;;;;;;10.90;1.58;;;11.50;44.70;;;;;;5043462;28;20146;-65
2021/03/16 11:03:25;;;;;;;26.00;2.22;;;11.50;44.70;;;;;;5045238;28;20489;-67
2021/03/16 11:05:51;;;;;;;;;;;11.50;44.60;;;;;;5044642;28;20155;-69
2021/03/16 11:08:18;;;;;;;12.65;1.83;;;11.50;44.70;;;;;;5045020;28;20366;-67
2021/03/16 11:10:44;;;;;;;;;;;11.50;44.70;;;;;;5027317;28;20534;-67
2021/03/16 11:13:10;;;;;;;16.65;2.00;;;11.50;44.60;;;;;;5046179;28;20036;-68
2021/03/16 11:15:38;;;;;;;12.20;1.90;;;11.50;45.20;;;;;;5037492;28;20531;-68
2021/03/16 11:18:06;;;;;;;16.80;2.15;;;11.40;46.00;;;;;;5044248;28;20434;-64
2021/03/16 11:20:32;;;;;;;36.58;2.53;;;11.40;46.50;;;;;;5042666;28;20465;-65
2021/03/16 11:22:59;;;;;;;17.05;2.20;;;11.50;46.10;;;;;;5043850;28;20082;-67
2021/03/16 11:25:25;;;;;;;;;;;11.50;45.60;;;;;;5041731;28;20098;-69
2021/03/16 11:27:52;;;;;;;10.65;1.90;;;11.50;45.70;;;;;;5029162;28;20335;-66
2021/03/16 11:30:19;;;;;;;8.63;1.73;;;11.40;45.60;;;;;;5042162;28;20454;-68
2021/03/16 11:32:45;;;;;;;8.07;1.60;;;11.40;45.30;;;;;;5020381;28;20097;-66
2021/03/16 11:35:12;;;;;;;;;;;11.40;44.90;;;;;;5041015;28;20623;-67
2021/03/16 11:37:38;;;;;;;13.63;2.05;;;11.40;44.60;;;;;;5016916;28;19965;-66
2021/03/16 11:40:05;;;;;;;;;;;11.40;44.90;;;;;;5039033;28;20518;-67
2021/03/16 11:42:31;;;;;;;11.55;1.92;;;11.40;44.90;;;;;;5041718;28;19988;-67
2021/03/16 11:44:58;;;;;;;9.23;1.95;;;11.40;45.20;;;;;;5022618;28;20428;-67
2021/03/16 11:47:24;;;;;;;7.63;1.90;;;11.40;45.10;;;;;;5023778;28;20105;-66
2021/03/16 11:49:50;;;;;;;;;;;11.40;45.30;;;;;;5039565;28;20066;-67
2021/03/16 11:52:17;;;;;;;11.95;2.60;;;11.30;45.20;;;;;;5042280;28;19988;-68
2021/03/16 11:54:44;;;;;;;18.05;3.03;;;11.20;45.60;;;;;;5046656;28;20082;-68
2021/03/16 11:57:10;;;;;;;12.23;2.53;;;11.20;46.10;;;;;;5045398;28;20158;-67
2021/03/16 11:59:36;;;;;;;;;;;11.10;46.30;;;;;;5024823;28;20127;-68
2021/03/16 12:02:03;;;;;;;9.60;1.90;;;11.20;46.30;;;;;;5038281;28;20470;-68
2021/03/16 12:04:31;;;;;;;12.43;3.45;;;11.20;46.30;;;;;;5039510;28;20074;-68
2021/03/16 12:06:57;;;;;;;10.40;2.33;;;11.10;46.20;;;;;;5038869;28;20094;-68
2021/03/16 12:09:24;;;;;;;11.55;2.70;;;11.10;46.30;;;;;;5038428;28;20096;-69
2021/03/16 12:11:50;;;;;;;15.30;2.83;;;11.10;46.10;;;;;;5044178;28;20135;-68
2021/03/16 12:14:17;;;;;;;14.80;2.60;;;11.10;45.90;;;;;;5041617;28;20483;-67
2021/03/16 12:16:43;;;;;;;;;;;11.10;45.80;;;;;;5039721;28;20085;-68
2021/03/16 12:19:09;;;;;;;11.63;2.25;;;11.10;45.90;;;;;;5033548;28;20117;-68
2021/03/16 12:21:36;;;;;;;;;;;11.00;45.80;;;;;;5040780;28;20077;-68
2021/03/16 12:24:02;;;;;;;9.18;1.67;;;11.00;45.80;;;;;;5044279;28;19965;-68
2021/03/16 12:26:29;;;;;;;;;;;11.00;46.10;;;;;;5042722;28;20098;-68
2021/03/16 12:28:55;;;;;;;11.45;2.03;;;11.00;46.40;;;;;;5041319;28;19961;-68
2021/03/16 12:31:21;;;;;;;;;;;11.00;46.70;;;;;;5038170;28;20146;-69
2021/03/16 12:33:48;;;;;;;13.02;2.05;;;11.00;47.00;;;;;;5030084;28;19965;-69
2021/03/16 12:36:14;;;;;;;;;;;11.00;47.00;;;;;;5042402;28;20123;-67
2021/03/16 12:38:40;;;;;;;9.55;1.80;;;11.00;47.00;;;;;;5039791;28;19962;-69
2021/03/16 12:41:07;;;;;;;;;;;11.00;47.20;;;;;;5043348;28;20076;-68
2021/03/16 12:43:33;;;;;;;16.60;2.35;;;11.00;47.10;;;;;;5038661;28;19957;-69
2021/03/16 12:45:59;;;;;;;;;;;11.00;47.50;;;;;;5040584;28;20546;-67
2021/03/16 12:48:26;;;;;;;11.10;2.45;;;11.00;47.60;;;;;;5038523;28;19961;-67
2021/03/16 12:50:53;;;;;;;9.35;1.88;;;11.00;47.60;;;;;;5038506;28;20168;-67
2021/03/16 12:53:20;;;;;;;15.15;2.63;;;10.90;47.70;;;;;;5042977;28;20109;-68
2021/03/16 12:55:46;;;;;;;;;;;11.00;47.80;;;;;;5040627;28;20109;-69